createdAt,value
2023-01-17T00:00:15.933Z,7.39
2023-01-17T00:05:12.285Z,7.38
2023-01-17T00:09:48.533Z,7.36
2023-01-17T00:14:06.045Z,7.31
2023-01-17T00:18:23.703Z,7.35
2023-01-17T00:23:02.610Z,7.31
2023-01-17T00:27:20.064Z,7.32
2023-01-17T00:31:37.751Z,7.26
2023-01-17T00:35:57.882Z,7.29
2023-01-17T00:40:16.775Z,7.24
2023-01-17T00:44:52.829Z,7.25
2023-01-17T00:49:29.381Z,7.32
2023-01-17T00:54:05.679Z,7.26
2023-01-17T00:58:41.979Z,7.25
2023-01-17T01:03:18.191Z,7.27
2023-01-17T01:07:54.807Z,7.24
2023-01-17T01:12:31.149Z,7.25
2023-01-17T01:17:29.508Z,7.20
2023-01-17T01:22:24.018Z,7.25
2023-01-17T01:27:00.110Z,7.21
2023-01-17T01:31:36.467Z,7.21
2023-01-17T01:35:55.968Z,7.24
2023-01-17T01:40:28.827Z,7.22
2023-01-17T01:45:18.091Z,7.25
2023-01-17T01:49:42.973Z,7.21
2023-01-17T01:54:28.139Z,7.23
2023-01-17T01:58:55.445Z,7.23
2023-01-17T02:03:32.747Z,7.20
2023-01-17T02:08:08.837Z,7.18
2023-01-17T02:12:26.571Z,7.17
2023-01-17T02:17:21.742Z,7.16
2023-01-17T02:22:30.340Z,7.23
2023-01-17T02:26:56.042Z,8.03
2023-01-17T02:31:33.085Z,8.52
2023-01-17T02:36:17.645Z,8.75
2023-01-17T02:40:44.759Z,8.12
2023-01-17T02:45:03.265Z,7.61
2023-01-17T02:49:27.487Z,7.49
2023-01-17T02:54:37.802Z,7.46
2023-01-17T02:59:18.173Z,7.34
2023-01-17T03:03:55.440Z,7.33
2023-01-17T03:08:13.601Z,7.29
2023-01-17T03:12:33.938Z,7.22
2023-01-17T03:16:51.711Z,7.24
2023-01-17T03:21:09.255Z,7.20
2023-01-17T03:25:27.673Z,7.18
2023-01-17T03:29:45.152Z,7.13
2023-01-17T03:34:02.957Z,7.16
2023-01-17T03:38:21.183Z,7.15
2023-01-17T03:42:39.876Z,7.18
2023-01-17T03:46:57.554Z,7.12
2023-01-17T03:51:15.317Z,7.11
2023-01-17T03:55:32.972Z,7.14
2023-01-17T03:59:50.555Z,7.11
2023-01-17T04:04:08.403Z,7.07
2023-01-17T04:08:25.966Z,7.09
2023-01-17T04:12:43.642Z,7.08
2023-01-17T04:17:01.580Z,7.10
2023-01-17T04:21:19.258Z,7.08
2023-01-17T04:25:37.333Z,7.03
2023-01-17T04:29:55.012Z,7.03
2023-01-17T04:34:12.553Z,7.04
2023-01-17T04:38:30.691Z,7.03
2023-01-17T04:42:48.767Z,7.05
2023-01-17T04:47:06.391Z,6.98
2023-01-17T04:51:23.943Z,6.99
2023-01-17T04:55:41.586Z,7.02
2023-01-17T04:59:59.124Z,7.04
2023-01-17T05:04:16.930Z,7.00
2023-01-17T05:08:34.445Z,6.94
2023-01-17T05:13:00.126Z,7.92
2023-01-17T05:17:17.617Z,8.18
2023-01-17T05:21:35.329Z,8.38
2023-01-17T05:25:52.808Z,7.86
2023-01-17T05:30:11.533Z,7.41
2023-01-17T05:34:29.299Z,7.26
2023-01-17T05:38:46.892Z,7.17
2023-01-17T05:43:05.101Z,7.16
2023-01-17T05:47:22.600Z,7.10
2023-01-17T05:51:40.170Z,7.11
2023-01-17T05:55:57.768Z,7.06
2023-01-17T06:00:17.031Z,7.09
2023-01-17T06:04:34.580Z,7.05
2023-01-17T06:08:52.225Z,7.05
2023-01-17T06:13:15.441Z,7.04
2023-01-17T06:17:33.066Z,7.03
2023-01-17T06:21:50.587Z,7.03
2023-01-17T06:26:09.194Z,6.98
2023-01-17T06:30:26.917Z,7.01
2023-01-17T06:34:44.424Z,7.00
2023-01-17T06:39:03.001Z,7.02
2023-01-17T06:43:20.481Z,6.99
2023-01-17T06:47:39.441Z,6.97
2023-01-17T06:51:57.008Z,7.01
2023-01-17T06:56:14.479Z,7.01
2023-01-17T07:00:35.383Z,7.02
2023-01-17T07:04:52.984Z,7.02
2023-01-17T07:09:10.479Z,7.04
2023-01-17T07:13:28.374Z,7.38
2023-01-17T07:17:45.970Z,8.06
2023-01-17T07:22:03.423Z,8.32
2023-01-17T07:26:21.114Z,8.52
2023-01-17T07:30:38.591Z,7.73
2023-01-17T07:34:58.184Z,7.47
2023-01-17T07:39:16.326Z,7.37
2023-01-17T07:43:35.729Z,7.31
2023-01-17T07:47:53.121Z,7.31
2023-01-17T07:52:10.851Z,7.31
2023-01-17T07:56:28.169Z,7.29
2023-01-17T08:00:45.889Z,7.83
2023-01-17T08:05:03.373Z,9.35
2023-01-17T08:09:20.923Z,10.12
2023-01-17T08:13:38.307Z,10.24
2023-01-17T08:17:57.947Z,9.90
2023-01-17T08:22:15.287Z,9.85
2023-01-17T08:26:32.889Z,9.92
2023-01-17T08:30:50.207Z,8.87
2023-01-17T08:35:09.148Z,8.57
2023-01-17T08:39:27.719Z,10.04
2023-01-17T08:43:48.248Z,10.87
2023-01-17T08:48:05.688Z,11.22
2023-01-17T08:52:23.153Z,10.86
2023-01-17T08:56:42.857Z,10.59
2023-01-17T09:01:02.786Z,10.41
2023-01-17T09:05:20.649Z,9.47
2023-01-17T09:09:38.199Z,8.92
2023-01-17T09:13:55.599Z,10.55
2023-01-17T09:18:13.064Z,11.40
2023-01-17T09:22:30.585Z,11.62
2023-01-17T09:26:47.935Z,11.68
2023-01-17T09:31:07.639Z,11.54
2023-01-17T09:35:25.273Z,11.05
2023-01-17T09:39:42.768Z,10.30
2023-01-17T09:44:02.051Z,9.50
2023-01-17T09:48:27.279Z,10.47
2023-01-17T09:52:45.147Z,11.26
2023-01-17T09:57:36.287Z,11.50
2023-01-17T10:01:59.503Z,12.33
2023-01-17T10:06:19.542Z,12.65
2023-01-17T10:11:09.603Z,12.66
2023-01-17T10:15:32.894Z,11.30
2023-01-17T10:20:04.143Z,10.41
2023-01-17T10:24:56.743Z,11.88
2023-01-17T10:29:20.183Z,12.70
2023-01-17T10:33:51.904Z,13.10
2023-01-17T10:38:12.704Z,13.27
2023-01-17T10:42:39.022Z,13.27
2023-01-17T10:47:00.405Z,13.10
2023-01-17T10:51:43.298Z,11.45
2023-01-17T10:56:01.304Z,10.80
2023-01-17T11:00:28.925Z,12.13
2023-01-17T11:04:50.371Z,12.31
2023-01-17T11:09:11.982Z,13.15
2023-01-17T11:13:38.777Z,14.14
2023-01-17T11:18:06.561Z,14.77
2023-01-17T11:22:25.060Z,14.72
2023-01-17T11:26:47.889Z,14.99
2023-01-17T11:31:10.121Z,15.40
2023-01-17T11:35:35.523Z,15.58
2023-01-17T11:40:06.217Z,16.43
2023-01-17T11:44:32.488Z,17.32
2023-01-17T11:48:53.447Z,19.38
2023-01-17T11:53:31.318Z,20.31
2023-01-17T11:57:50.681Z,19.24
2023-01-17T12:02:37.421Z,17.90
2023-01-17T12:07:22.753Z,18.94
2023-01-17T12:12:09.275Z,20.23
2023-01-17T12:17:14.764Z,20.57
2023-01-17T12:21:50.564Z,20.83
2023-01-17T12:26:20.827Z,20.70
2023-01-17T12:30:41.367Z,20.82
2023-01-17T12:35:19.205Z,20.91
2023-01-17T12:39:40.273Z,20.60
2023-01-17T12:44:00.192Z,20.56
2023-01-17T12:48:19.763Z,20.66
2023-01-17T12:52:45.981Z,20.52
2023-01-17T12:57:14.413Z,20.67
2023-01-17T13:01:40.065Z,20.27
2023-01-17T13:05:58.155Z,20.15
2023-01-17T13:10:31.148Z,20.06
2023-01-17T13:14:49.353Z,19.77
2023-01-17T13:19:16.753Z,18.73
2023-01-17T13:23:59.486Z,17.55
2023-01-17T13:28:28.148Z,16.08
2023-01-17T13:33:07.305Z,15.51
2023-01-17T13:37:49.060Z,15.36
2023-01-17T13:42:29.919Z,15.19
2023-01-17T13:47:19.262Z,15.03
2023-01-17T13:52:03.943Z,15.04
2023-01-17T13:56:27.333Z,14.97
2023-01-17T14:00:44.857Z,15.14
2023-01-17T14:05:24.001Z,15.18
2023-01-17T14:09:43.101Z,15.03
2023-01-17T14:14:39.017Z,15.03
2023-01-17T14:18:56.661Z,15.06
2023-01-17T14:23:28.916Z,14.93
2023-01-17T14:27:49.592Z,15.15
2023-01-17T14:32:10.849Z,15.12
2023-01-17T14:36:33.057Z,15.02
2023-01-17T14:41:01.011Z,14.94
2023-01-17T14:45:26.567Z,15.00
2023-01-17T14:49:44.617Z,15.03
2023-01-17T14:54:03.455Z,15.17
2023-01-17T14:58:24.897Z,15.14
2023-01-17T15:02:45.550Z,15.16
2023-01-17T15:07:03.572Z,15.11
2023-01-17T15:11:25.791Z,15.13
2023-01-17T15:15:43.303Z,15.18
2023-01-17T15:20:03.523Z,15.16
2023-01-17T15:24:29.111Z,15.10
2023-01-17T15:28:47.026Z,13.32
2023-01-17T15:33:04.661Z,13.15
2023-01-17T15:37:36.037Z,13.20
2023-01-17T15:41:59.519Z,13.58
2023-01-17T15:46:32.443Z,13.62
2023-01-17T15:50:57.980Z,13.68
2023-01-17T15:55:48.067Z,13.88
2023-01-17T16:00:20.987Z,14.11
2023-01-17T16:04:42.403Z,12.61
2023-01-17T16:08:59.808Z,13.17
2023-01-17T16:13:17.197Z,13.30
2023-01-17T16:17:35.246Z,13.72
2023-01-17T16:21:52.655Z,13.74
2023-01-17T16:26:11.092Z,13.92
2023-01-17T16:30:29.456Z,14.13
2023-01-17T16:34:46.993Z,13.80
2023-01-17T16:39:04.699Z,12.23
2023-01-17T16:43:23.026Z,13.10
2023-01-17T16:47:45.107Z,13.33
2023-01-17T16:52:02.702Z,13.73
2023-01-17T16:56:20.401Z,13.75
2023-01-17T17:00:40.037Z,14.19
2023-01-17T17:04:57.435Z,14.07
2023-01-17T17:09:15.018Z,13.59
2023-01-17T17:13:35.506Z,12.13
2023-01-17T17:17:55.110Z,13.18
2023-01-17T17:22:12.634Z,13.37
2023-01-17T17:26:32.398Z,13.82
2023-01-17T17:30:49.898Z,14.06
2023-01-17T17:35:07.672Z,14.19
2023-01-17T17:39:25.050Z,14.34
2023-01-17T17:43:42.675Z,13.59
2023-01-17T17:48:00.413Z,12.19
2023-01-17T17:52:17.988Z,13.34
2023-01-17T17:56:36.376Z,13.59
2023-01-17T18:00:54.267Z,13.60
2023-01-17T18:05:11.691Z,13.99
2023-01-17T18:09:29.277Z,14.08
2023-01-17T18:13:48.295Z,14.40
2023-01-17T18:18:05.677Z,13.51
2023-01-17T18:22:23.338Z,12.26
2023-01-17T18:27:00.930Z,13.57
2023-01-17T18:31:18.477Z,13.60
2023-01-17T18:35:35.979Z,13.79
2023-01-17T18:39:53.394Z,13.97
2023-01-17T18:44:12.016Z,14.26
2023-01-17T18:48:29.503Z,14.43
2023-01-17T18:52:46.977Z,13.19
2023-01-17T18:57:04.403Z,12.28
2023-01-17T19:01:25.434Z,13.51
2023-01-17T19:05:42.360Z,13.68
2023-01-17T19:10:00.148Z,13.87
2023-01-17T19:14:17.605Z,13.92
2023-01-17T19:18:35.705Z,14.35
2023-01-17T19:22:53.748Z,14.46
2023-01-17T19:27:13.159Z,13.15
2023-01-17T19:31:32.412Z,12.67
2023-01-17T19:35:49.915Z,13.42
2023-01-17T19:40:08.683Z,13.70
2023-01-17T19:44:26.152Z,13.86
2023-01-17T19:48:43.582Z,14.07
2023-01-17T19:53:00.879Z,14.00
2023-01-17T19:57:22.347Z,14.20
2023-01-17T20:01:39.940Z,14.51
2023-01-17T20:05:57.592Z,12.93
2023-01-17T20:10:15.096Z,13.51
2023-01-17T20:14:32.818Z,13.53
2023-01-17T20:18:50.348Z,13.96
2023-01-17T20:23:08.738Z,13.86
2023-01-17T20:27:26.692Z,13.87
2023-01-17T20:31:45.293Z,14.02
2023-01-17T20:36:09.965Z,14.06
2023-01-17T20:40:27.379Z,14.04
2023-01-17T20:44:45.574Z,14.24
2023-01-17T20:49:06.369Z,14.49
2023-01-17T20:53:23.910Z,14.70
2023-01-17T20:57:41.518Z,13.25
2023-01-17T21:01:59.177Z,13.56
2023-01-17T21:06:16.853Z,13.80
2023-01-17T21:10:33.954Z,13.96
2023-01-17T21:14:51.572Z,14.08
2023-01-17T21:19:12.207Z,14.16
2023-01-17T21:23:29.890Z,14.26
2023-01-17T21:27:47.603Z,14.23
2023-01-17T21:32:05.353Z,14.38
2023-01-17T21:36:25.692Z,14.34
2023-01-17T21:40:44.243Z,14.40
2023-01-17T21:45:01.805Z,14.51
2023-01-17T21:49:19.336Z,14.65
2023-01-17T21:53:38.298Z,14.06
2023-01-17T21:58:14.293Z,13.33
2023-01-17T22:02:32.044Z,14.01
2023-01-17T22:06:49.366Z,14.18
2023-01-17T22:11:09.147Z,14.26
2023-01-17T22:15:26.509Z,14.46
2023-01-17T22:19:46.099Z,14.44
2023-01-17T22:24:03.628Z,14.46
2023-01-17T22:28:21.285Z,14.53
2023-01-17T22:32:39.506Z,14.57
2023-01-17T22:36:56.977Z,14.85
2023-01-17T22:41:17.009Z,13.70
2023-01-17T22:45:34.613Z,14.25
2023-01-17T22:49:51.997Z,14.55
2023-01-17T22:54:11.610Z,14.79
2023-01-17T22:58:29.746Z,14.71
2023-01-17T23:02:48.448Z,14.74
2023-01-17T23:07:05.924Z,14.73
2023-01-17T23:11:39.437Z,14.87
2023-01-17T23:16:15.457Z,14.91
2023-01-17T23:20:32.991Z,14.23
2023-01-17T23:24:59.435Z,13.96
2023-01-17T23:29:16.854Z,14.64
2023-01-17T23:33:34.297Z,14.87
2023-01-17T23:38:10.391Z,14.85
2023-01-17T23:42:46.397Z,14.91
2023-01-17T23:47:04.005Z,14.82
2023-01-17T23:51:21.450Z,15.16
2023-01-17T23:55:40.760Z,14.86
2023-01-17T23:59:58.183Z,13.87
